sensor_id;sensor_type;location;lat;lon;timestamp;P1;durP1;ratioP1;P2;durP2;ratioP2
9392;SDS011;4736;52.508;13.422;2022-11-14T00:01:16;64.27;;;39.50;;
9392;SDS011;4736;52.508;13.422;2022-11-14T00:04:19;68.10;;;41.27;;
9392;SDS011;4736;52.508;13.422;2022-11-14T00:07:29;61.60;;;40.03;;
9392;SDS011;4736;52.508;13.422;2022-11-14T00:10:34;68.10;;;42.07;;
9392;SDS011;4736;52.508;13.422;2022-11-14T00:13:37;67.20;;;42.37;;
9392;SDS011;4736;52.508;13.422;2022-11-14T00:16:40;67.53;;;42.57;;
9392;SDS011;4736;52.508;13.422;2022-11-14T00:19:55;63.00;;;39.87;;
9392;SDS011;4736;52.508;13.422;2022-11-14T00:22:58;68.67;;;41.97;;
9392;SDS011;4736;52.508;13.422;2022-11-14T00:26:02;66.47;;;41.43;;
9392;SDS011;4736;52.508;13.422;2022-11-14T00:29:05;65.77;;;41.03;;
9392;SDS011;4736;52.508;13.422;2022-11-14T00:32:08;73.33;;;44.60;;
9392;SDS011;4736;52.508;13.422;2022-11-14T00:35:11;72.40;;;42.93;;
9392;SDS011;4736;52.508;13.422;2022-11-14T00:38:14;69.43;;;42.70;;
9392;SDS011;4736;52.508;13.422;2022-11-14T00:41:18;74.97;;;43.27;;
9392;SDS011;4736;52.508;13.422;2022-11-14T00:44:21;71.00;;;42.80;;
9392;SDS011;4736;52.508;13.422;2022-11-14T00:47:24;68.87;;;42.23;;
9392;SDS011;4736;52.508;13.422;2022-11-14T00:50:27;74.80;;;44.13;;
9392;SDS011;4736;52.508;13.422;2022-11-14T00:53:30;70.40;;;41.60;;
9392;SDS011;4736;52.508;13.422;2022-11-14T00:56:35;66.83;;;41.40;;
9392;SDS011;4736;52.508;13.422;2022-11-14T00:59:44;70.57;;;44.77;;
9392;SDS011;4736;52.508;13.422;2022-11-14T01:02:53;73.27;;;43.23;;
9392;SDS011;4736;52.508;13.422;2022-11-14T01:05:57;73.77;;;43.13;;
9392;SDS011;4736;52.508;13.422;2022-11-14T01:09:07;79.00;;;45.47;;
9392;SDS011;4736;52.508;13.422;2022-11-14T01:12:11;72.63;;;43.80;;
9392;SDS011;4736;52.508;13.422;2022-11-14T01:15:14;76.07;;;42.63;;
9392;SDS011;4736;52.508;13.422;2022-11-14T01:18:18;79.13;;;44.87;;
9392;SDS011;4736;52.508;13.422;2022-11-14T01:21:23;80.20;;;46.17;;
9392;SDS011;4736;52.508;13.422;2022-11-14T01:24:26;79.27;;;45.00;;
9392;SDS011;4736;52.508;13.422;2022-11-14T01:27:31;77.03;;;44.50;;
9392;SDS011;4736;52.508;13.422;2022-11-14T01:30:34;81.53;;;44.97;;
9392;SDS011;4736;52.508;13.422;2022-11-14T01:33:38;86.43;;;44.13;;
9392;SDS011;4736;52.508;13.422;2022-11-14T01:36:42;86.87;;;45.80;;
9392;SDS011;4736;52.508;13.422;2022-11-14T01:39:46;79.17;;;44.50;;
9392;SDS011;4736;52.508;13.422;2022-11-14T01:43:18;79.07;;;44.87;;
9392;SDS011;4736;52.508;13.422;2022-11-14T01:46:27;78.23;;;43.30;;
9392;SDS011;4736;52.508;13.422;2022-11-14T01:49:36;83.33;;;44.47;;
9392;SDS011;4736;52.508;13.422;2022-11-14T01:52:41;77.33;;;44.20;;
9392;SDS011;4736;52.508;13.422;2022-11-14T01:55:44;85.77;;;46.00;;
9392;SDS011;4736;52.508;13.422;2022-11-14T01:58:50;82.83;;;45.40;;
9392;SDS011;4736;52.508;13.422;2022-11-14T02:01:56;84.30;;;45.07;;
9392;SDS011;4736;52.508;13.422;2022-11-14T02:05:04;92.50;;;47.87;;
9392;SDS011;4736;52.508;13.422;2022-11-14T02:08:12;85.43;;;48.27;;
9392;SDS011;4736;52.508;13.422;2022-11-14T02:11:16;81.93;;;46.00;;
9392;SDS011;4736;52.508;13.422;2022-11-14T02:14:28;81.03;;;43.57;;
9392;SDS011;4736;52.508;13.422;2022-11-14T02:17:32;86.07;;;44.33;;
9392;SDS011;4736;52.508;13.422;2022-11-14T02:20:36;83.23;;;43.97;;
9392;SDS011;4736;52.508;13.422;2022-11-14T02:23:43;85.07;;;45.67;;
9392;SDS011;4736;52.508;13.422;2022-11-14T02:26:46;84.73;;;44.53;;
9392;SDS011;4736;52.508;13.422;2022-11-14T02:29:49;87.00;;;45.87;;
9392;SDS011;4736;52.508;13.422;2022-11-14T02:32:52;87.57;;;45.63;;
9392;SDS011;4736;52.508;13.422;2022-11-14T02:36:13;85.00;;;45.10;;
9392;SDS011;4736;52.508;13.422;2022-11-14T02:39:16;85.53;;;45.33;;
9392;SDS011;4736;52.508;13.422;2022-11-14T02:42:19;85.30;;;45.83;;
9392;SDS011;4736;52.508;13.422;2022-11-14T02:45:22;84.07;;;43.30;;
9392;SDS011;4736;52.508;13.422;2022-11-14T02:48:25;84.00;;;45.07;;
9392;SDS011;4736;52.508;13.422;2022-11-14T02:51:30;89.73;;;45.80;;
9392;SDS011;4736;52.508;13.422;2022-11-14T02:54:33;86.13;;;44.37;;
9392;SDS011;4736;52.508;13.422;2022-11-14T02:57:36;83.10;;;44.17;;
9392;SDS011;4736;52.508;13.422;2022-11-14T03:00:39;82.43;;;43.77;;
9392;SDS011;4736;52.508;13.422;2022-11-14T03:04:15;85.57;;;43.60;;
9392;SDS011;4736;52.508;13.422;2022-11-14T03:07:20;81.90;;;44.27;;
9392;SDS011;4736;52.508;13.422;2022-11-14T03:10:25;84.87;;;42.67;;
9392;SDS011;4736;52.508;13.422;2022-11-14T03:13:28;83.77;;;43.97;;
9392;SDS011;4736;52.508;13.422;2022-11-14T03:16:31;86.60;;;44.97;;
9392;SDS011;4736;52.508;13.422;2022-11-14T03:19:34;74.27;;;41.77;;
9392;SDS011;4736;52.508;13.422;2022-11-14T03:22:38;80.47;;;44.23;;
9392;SDS011;4736;52.508;13.422;2022-11-14T03:25:41;78.43;;;43.37;;
9392;SDS011;4736;52.508;13.422;2022-11-14T03:28:44;77.80;;;41.70;;
9392;SDS011;4736;52.508;13.422;2022-11-14T03:31:47;78.30;;;44.33;;
9392;SDS011;4736;52.508;13.422;2022-11-14T03:34:50;75.83;;;42.07;;
9392;SDS011;4736;52.508;13.422;2022-11-14T03:37:56;84.33;;;43.97;;
9392;SDS011;4736;52.508;13.422;2022-11-14T03:41:00;81.80;;;43.60;;
9392;SDS011;4736;52.508;13.422;2022-11-14T03:44:03;85.33;;;43.57;;
9392;SDS011;4736;52.508;13.422;2022-11-14T03:47:06;78.40;;;40.83;;
9392;SDS011;4736;52.508;13.422;2022-11-14T03:50:09;74.43;;;42.67;;
9392;SDS011;4736;52.508;13.422;2022-11-14T03:53:13;89.47;;;45.30;;
9392;SDS011;4736;52.508;13.422;2022-11-14T03:56:16;84.10;;;41.80;;
9392;SDS011;4736;52.508;13.422;2022-11-14T03:59:19;83.20;;;41.13;;
9392;SDS011;4736;52.508;13.422;2022-11-14T04:02:22;79.83;;;42.53;;
9392;SDS011;4736;52.508;13.422;2022-11-14T04:05:25;76.27;;;40.47;;
9392;SDS011;4736;52.508;13.422;2022-11-14T04:08:29;77.20;;;41.77;;
9392;SDS011;4736;52.508;13.422;2022-11-14T04:11:35;79.67;;;41.27;;
9392;SDS011;4736;52.508;13.422;2022-11-14T04:14:38;80.97;;;41.97;;
9392;SDS011;4736;52.508;13.422;2022-11-14T04:17:41;79.20;;;41.70;;
9392;SDS011;4736;52.508;13.422;2022-11-14T04:20:44;81.87;;;42.77;;
9392;SDS011;4736;52.508;13.422;2022-11-14T04:23:48;85.57;;;41.53;;
9392;SDS011;4736;52.508;13.422;2022-11-14T04:26:51;85.33;;;43.77;;
9392;SDS011;4736;52.508;13.422;2022-11-14T04:29:55;92.60;;;44.97;;
9392;SDS011;4736;52.508;13.422;2022-11-14T04:33:00;90.27;;;43.40;;
9392;SDS011;4736;52.508;13.422;2022-11-14T04:36:04;82.23;;;42.47;;
9392;SDS011;4736;52.508;13.422;2022-11-14T04:39:08;88.17;;;43.00;;
9392;SDS011;4736;52.508;13.422;2022-11-14T04:42:13;88.83;;;44.60;;
9392;SDS011;4736;52.508;13.422;2022-11-14T04:45:16;93.50;;;44.30;;
9392;SDS011;4736;52.508;13.422;2022-11-14T04:48:32;91.80;;;44.90;;
9392;SDS011;4736;52.508;13.422;2022-11-14T04:51:35;87.57;;;46.27;;
9392;SDS011;4736;52.508;13.422;2022-11-14T04:54:39;92.70;;;43.13;;
9392;SDS011;4736;52.508;13.422;2022-11-14T04:57:42;103.03;;;47.30;;
9392;SDS011;4736;52.508;13.422;2022-11-14T05:00:45;96.97;;;47.57;;
9392;SDS011;4736;52.508;13.422;2022-11-14T05:03:48;89.73;;;44.03;;
9392;SDS011;4736;52.508;13.422;2022-11-14T05:06:51;93.60;;;44.67;;
9392;SDS011;4736;52.508;13.422;2022-11-14T05:09:56;99.83;;;45.33;;
9392;SDS011;4736;52.508;13.422;2022-11-14T05:12:58;85.87;;;42.57;;
9392;SDS011;4736;52.508;13.422;2022-11-14T05:16:02;90.57;;;43.17;;
9392;SDS011;4736;52.508;13.422;2022-11-14T05:19:05;93.50;;;44.63;;
9392;SDS011;4736;52.508;13.422;2022-11-14T05:22:08;101.10;;;44.17;;
9392;SDS011;4736;52.508;13.422;2022-11-14T05:25:15;97.70;;;43.57;;
9392;SDS011;4736;52.508;13.422;2022-11-14T05:28:18;93.40;;;42.63;;
9392;SDS011;4736;52.508;13.422;2022-11-14T05:31:28;92.03;;;43.60;;
9392;SDS011;4736;52.508;13.422;2022-11-14T05:34:31;95.43;;;44.73;;
9392;SDS011;4736;52.508;13.422;2022-11-14T05:37:34;95.00;;;43.30;;
9392;SDS011;4736;52.508;13.422;2022-11-14T05:40:38;90.73;;;45.67;;
9392;SDS011;4736;52.508;13.422;2022-11-14T05:43:41;91.30;;;42.67;;
9392;SDS011;4736;52.508;13.422;2022-11-14T05:46:45;86.13;;;44.50;;
9392;SDS011;4736;52.508;13.422;2022-11-14T05:49:48;94.87;;;44.40;;
9392;SDS011;4736;52.508;13.422;2022-11-14T05:52:50;89.57;;;42.60;;
9392;SDS011;4736;52.508;13.422;2022-11-14T05:55:58;90.47;;;44.23;;
9392;SDS011;4736;52.508;13.422;2022-11-14T05:59:04;88.40;;;41.80;;
9392;SDS011;4736;52.508;13.422;2022-11-14T06:02:07;95.83;;;45.70;;
9392;SDS011;4736;52.508;13.422;2022-11-14T06:05:10;80.43;;;41.40;;
9392;SDS011;4736;52.508;13.422;2022-11-14T06:08:13;86.73;;;42.70;;
9392;SDS011;4736;52.508;13.422;2022-11-14T06:11:19;92.80;;;42.90;;
9392;SDS011;4736;52.508;13.422;2022-11-14T06:14:32;90.73;;;44.50;;
9392;SDS011;4736;52.508;13.422;2022-11-14T06:17:35;83.43;;;42.67;;
9392;SDS011;4736;52.508;13.422;2022-11-14T06:20:38;95.47;;;43.40;;
9392;SDS011;4736;52.508;13.422;2022-11-14T06:23:41;84.60;;;42.23;;
9392;SDS011;4736;52.508;13.422;2022-11-14T06:26:48;83.70;;;41.90;;
9392;SDS011;4736;52.508;13.422;2022-11-14T06:29:50;87.40;;;42.57;;
9392;SDS011;4736;52.508;13.422;2022-11-14T06:32:55;86.90;;;40.57;;
9392;SDS011;4736;52.508;13.422;2022-11-14T06:35:59;82.57;;;41.83;;
9392;SDS011;4736;52.508;13.422;2022-11-14T06:39:03;85.00;;;41.80;;
9392;SDS011;4736;52.508;13.422;2022-11-14T06:42:14;88.17;;;41.77;;
9392;SDS011;4736;52.508;13.422;2022-11-14T06:45:17;95.37;;;43.90;;
9392;SDS011;4736;52.508;13.422;2022-11-14T06:48:20;87.07;;;41.40;;
9392;SDS011;4736;52.508;13.422;2022-11-14T06:51:23;91.07;;;42.47;;
9392;SDS011;4736;52.508;13.422;2022-11-14T06:54:26;81.47;;;40.37;;
9392;SDS011;4736;52.508;13.422;2022-11-14T06:57:31;88.03;;;43.13;;
9392;SDS011;4736;52.508;13.422;2022-11-14T07:00:33;87.03;;;42.37;;
9392;SDS011;4736;52.508;13.422;2022-11-14T07:03:38;84.80;;;43.03;;
9392;SDS011;4736;52.508;13.422;2022-11-14T07:06:41;92.40;;;43.53;;
9392;SDS011;4736;52.508;13.422;2022-11-14T07:09:44;93.53;;;42.33;;
9392;SDS011;4736;52.508;13.422;2022-11-14T07:12:50;92.93;;;43.33;;
9392;SDS011;4736;52.508;13.422;2022-11-14T07:15:53;89.90;;;42.40;;
9392;SDS011;4736;52.508;13.422;2022-11-14T07:18:56;84.07;;;42.13;;
9392;SDS011;4736;52.508;13.422;2022-11-14T07:22:00;88.83;;;43.43;;
9392;SDS011;4736;52.508;13.422;2022-11-14T07:25:03;84.60;;;40.20;;
9392;SDS011;4736;52.508;13.422;2022-11-14T07:28:08;85.70;;;43.53;;
9392;SDS011;4736;52.508;13.422;2022-11-14T07:31:12;85.10;;;40.40;;
9392;SDS011;4736;52.508;13.422;2022-11-14T07:34:17;87.77;;;42.30;;
9392;SDS011;4736;52.508;13.422;2022-11-14T07:37:20;84.03;;;39.37;;
9392;SDS011;4736;52.508;13.422;2022-11-14T07:40:34;80.57;;;40.23;;
9392;SDS011;4736;52.508;13.422;2022-11-14T07:43:38;84.87;;;39.97;;
9392;SDS011;4736;52.508;13.422;2022-11-14T07:46:42;84.37;;;40.27;;
9392;SDS011;4736;52.508;13.422;2022-11-14T07:49:45;84.37;;;39.77;;
9392;SDS011;4736;52.508;13.422;2022-11-14T07:52:49;80.50;;;40.97;;
9392;SDS011;4736;52.508;13.422;2022-11-14T07:55:52;81.87;;;40.63;;
9392;SDS011;4736;52.508;13.422;2022-11-14T07:58:57;84.00;;;39.93;;
9392;SDS011;4736;52.508;13.422;2022-11-14T08:02:03;78.57;;;38.83;;
9392;SDS011;4736;52.508;13.422;2022-11-14T08:05:06;81.77;;;39.87;;
9392;SDS011;4736;52.508;13.422;2022-11-14T08:08:19;85.03;;;40.73;;
9392;SDS011;4736;52.508;13.422;2022-11-14T08:11:22;85.30;;;41.80;;
9392;SDS011;4736;52.508;13.422;2022-11-14T08:14:40;82.23;;;38.80;;
9392;SDS011;4736;52.508;13.422;2022-11-14T08:17:43;84.27;;;41.50;;
9392;SDS011;4736;52.508;13.422;2022-11-14T08:20:46;69.23;;;38.17;;
9392;SDS011;4736;52.508;13.422;2022-11-14T08:23:49;77.93;;;38.33;;
9392;SDS011;4736;52.508;13.422;2022-11-14T08:26:52;74.07;;;38.43;;
9392;SDS011;4736;52.508;13.422;2022-11-14T08:29:56;78.47;;;40.37;;
9392;SDS011;4736;52.508;13.422;2022-11-14T08:33:05;82.93;;;38.33;;
9392;SDS011;4736;52.508;13.422;2022-11-14T08:36:09;74.13;;;38.63;;
9392;SDS011;4736;52.508;13.422;2022-11-14T08:39:12;82.20;;;39.53;;
9392;SDS011;4736;52.508;13.422;2022-11-14T08:42:15;80.43;;;38.20;;
9392;SDS011;4736;52.508;13.422;2022-11-14T08:45:20;80.50;;;38.07;;
9392;SDS011;4736;52.508;13.422;2022-11-14T08:48:23;80.33;;;40.47;;
9392;SDS011;4736;52.508;13.422;2022-11-14T08:51:27;69.47;;;36.83;;
9392;SDS011;4736;52.508;13.422;2022-11-14T08:54:30;78.60;;;38.00;;
9392;SDS011;4736;52.508;13.422;2022-11-14T08:57:33;76.90;;;39.23;;
9392;SDS011;4736;52.508;13.422;2022-11-14T09:00:37;75.73;;;38.60;;
9392;SDS011;4736;52.508;13.422;2022-11-14T09:03:40;74.33;;;37.57;;
9392;SDS011;4736;52.508;13.422;2022-11-14T09:06:43;75.53;;;37.97;;
9392;SDS011;4736;52.508;13.422;2022-11-14T09:09:47;75.50;;;38.87;;
9392;SDS011;4736;52.508;13.422;2022-11-14T09:12:53;72.60;;;37.23;;
9392;SDS011;4736;52.508;13.422;2022-11-14T09:15:58;67.87;;;35.70;;
9392;SDS011;4736;52.508;13.422;2022-11-14T09:19:01;68.07;;;36.13;;
9392;SDS011;4736;52.508;13.422;2022-11-14T09:22:04;66.60;;;35.70;;
9392;SDS011;4736;52.508;13.422;2022-11-14T09:25:07;67.87;;;34.27;;
9392;SDS011;4736;52.508;13.422;2022-11-14T09:28:10;73.13;;;36.13;;
9392;SDS011;4736;52.508;13.422;2022-11-14T09:31:15;61.50;;;34.13;;
9392;SDS011;4736;52.508;13.422;2022-11-14T09:34:19;75.00;;;34.67;;
9392;SDS011;4736;52.508;13.422;2022-11-14T09:37:22;66.47;;;34.50;;
9392;SDS011;4736;52.508;13.422;2022-11-14T09:40:25;67.27;;;35.43;;
9392;SDS011;4736;52.508;13.422;2022-11-14T09:43:34;63.17;;;34.07;;
9392;SDS011;4736;52.508;13.422;2022-11-14T09:46:51;65.43;;;34.77;;
9392;SDS011;4736;52.508;13.422;2022-11-14T09:49:59;65.73;;;34.37;;
9392;SDS011;4736;52.508;13.422;2022-11-14T09:53:09;61.17;;;32.67;;
9392;SDS011;4736;52.508;13.422;2022-11-14T09:56:21;56.27;;;32.53;;
9392;SDS011;4736;52.508;13.422;2022-11-14T09:59:26;66.60;;;32.40;;
9392;SDS011;4736;52.508;13.422;2022-11-14T10:02:33;64.27;;;32.87;;
9392;SDS011;4736;52.508;13.422;2022-11-14T10:09:26;51.60;;;31.70;;
9392;SDS011;4736;52.508;13.422;2022-11-14T10:12:42;61.97;;;32.93;;
9392;SDS011;4736;52.508;13.422;2022-11-14T10:15:51;55.13;;;31.60;;
9392;SDS011;4736;52.508;13.422;2022-11-14T10:19:07;56.67;;;31.63;;
9392;SDS011;4736;52.508;13.422;2022-11-14T10:22:20;56.67;;;33.13;;
9392;SDS011;4736;52.508;13.422;2022-11-14T10:25:37;56.50;;;31.40;;
9392;SDS011;4736;52.508;13.422;2022-11-14T10:28:52;54.73;;;31.93;;
9392;SDS011;4736;52.508;13.422;2022-11-14T10:32:10;51.37;;;31.73;;
9392;SDS011;4736;52.508;13.422;2022-11-14T10:35:24;58.53;;;30.67;;
9392;SDS011;4736;52.508;13.422;2022-11-14T10:38:36;53.83;;;32.90;;
9392;SDS011;4736;52.508;13.422;2022-11-14T10:41:43;51.50;;;29.87;;
9392;SDS011;4736;52.508;13.422;2022-11-14T10:45:04;56.70;;;30.93;;
9392;SDS011;4736;52.508;13.422;2022-11-14T10:48:28;51.60;;;31.27;;
9392;SDS011;4736;52.508;13.422;2022-11-14T10:51:35;54.70;;;31.33;;
9392;SDS011;4736;52.508;13.422;2022-11-14T10:54:43;52.43;;;30.63;;
9392;SDS011;4736;52.508;13.422;2022-11-14T10:57:50;52.47;;;30.73;;
9392;SDS011;4736;52.508;13.422;2022-11-14T11:00:53;47.67;;;29.73;;
9392;SDS011;4736;52.508;13.422;2022-11-14T11:03:56;53.13;;;30.90;;
9392;SDS011;4736;52.508;13.422;2022-11-14T11:10:41;48.70;;;30.70;;
9392;SDS011;4736;52.508;13.422;2022-11-14T11:14:16;48.23;;;29.80;;
9392;SDS011;4736;52.508;13.422;2022-11-14T11:17:20;49.07;;;29.00;;
9392;SDS011;4736;52.508;13.422;2022-11-14T11:20:34;52.67;;;30.50;;
9392;SDS011;4736;52.508;13.422;2022-11-14T11:23:48;47.07;;;29.00;;
9392;SDS011;4736;52.508;13.422;2022-11-14T11:27:00;51.40;;;29.47;;
9392;SDS011;4736;52.508;13.422;2022-11-14T11:30:16;42.03;;;27.63;;
9392;SDS011;4736;52.508;13.422;2022-11-14T11:33:24;48.57;;;28.70;;
9392;SDS011;4736;52.508;13.422;2022-11-14T11:36:38;45.67;;;29.33;;
9392;SDS011;4736;52.508;13.422;2022-11-14T11:39:46;46.23;;;28.03;;
9392;SDS011;4736;52.508;13.422;2022-11-14T11:42:56;41.50;;;29.60;;
9392;SDS011;4736;52.508;13.422;2022-11-14T11:46:25;40.13;;;28.17;;
9392;SDS011;4736;52.508;13.422;2022-11-14T11:49:39;45.30;;;29.50;;
9392;SDS011;4736;52.508;13.422;2022-11-14T11:53:00;42.23;;;26.93;;
9392;SDS011;4736;52.508;13.422;2022-11-14T11:56:16;42.63;;;27.63;;
9392;SDS011;4736;52.508;13.422;2022-11-14T11:59:25;34.67;;;24.80;;
9392;SDS011;4736;52.508;13.422;2022-11-14T12:02:34;36.20;;;24.73;;
9392;SDS011;4736;52.508;13.422;2022-11-14T12:05:52;39.87;;;24.67;;
9392;SDS011;4736;52.508;13.422;2022-11-14T12:09:06;35.20;;;24.87;;
9392;SDS011;4736;52.508;13.422;2022-11-14T12:12:20;36.97;;;25.77;;
9392;SDS011;4736;52.508;13.422;2022-11-14T12:15:30;40.23;;;25.43;;
9392;SDS011;4736;52.508;13.422;2022-11-14T12:18:46;39.67;;;25.47;;
9392;SDS011;4736;52.508;13.422;2022-11-14T12:22:06;33.37;;;24.17;;
9392;SDS011;4736;52.508;13.422;2022-11-14T12:25:34;37.93;;;23.80;;
9392;SDS011;4736;52.508;13.422;2022-11-14T12:28:48;38.57;;;25.53;;
9392;SDS011;4736;52.508;13.422;2022-11-14T12:32:01;35.73;;;24.70;;
9392;SDS011;4736;52.508;13.422;2022-11-14T12:35:09;38.97;;;26.27;;
9392;SDS011;4736;52.508;13.422;2022-11-14T12:38:18;31.13;;;22.20;;
9392;SDS011;4736;52.508;13.422;2022-11-14T12:41:23;33.43;;;24.40;;
9392;SDS011;4736;52.508;13.422;2022-11-14T12:44:34;37.57;;;24.53;;
9392;SDS011;4736;52.508;13.422;2022-11-14T12:47:38;33.23;;;24.97;;
9392;SDS011;4736;52.508;13.422;2022-11-14T12:54:50;33.93;;;24.97;;
9392;SDS011;4736;52.508;13.422;2022-11-14T12:57:54;34.33;;;24.63;;
9392;SDS011;4736;52.508;13.422;2022-11-14T13:01:09;34.63;;;24.30;;
9392;SDS011;4736;52.508;13.422;2022-11-14T13:04:26;36.07;;;23.50;;
9392;SDS011;4736;52.508;13.422;2022-11-14T13:07:48;33.90;;;22.77;;
9392;SDS011;4736;52.508;13.422;2022-11-14T13:14:52;33.13;;;22.30;;
9392;SDS011;4736;52.508;13.422;2022-11-14T13:18:22;29.33;;;22.27;;
9392;SDS011;4736;52.508;13.422;2022-11-14T13:25:21;26.87;;;21.40;;
9392;SDS011;4736;52.508;13.422;2022-11-14T13:28:44;29.73;;;21.63;;
9392;SDS011;4736;52.508;13.422;2022-11-14T13:31:49;28.57;;;22.03;;
9392;SDS011;4736;52.508;13.422;2022-11-14T13:34:55;28.10;;;20.67;;
9392;SDS011;4736;52.508;13.422;2022-11-14T13:45:31;24.77;;;20.57;;
9392;SDS011;4736;52.508;13.422;2022-11-14T13:49:05;25.50;;;21.63;;
9392;SDS011;4736;52.508;13.422;2022-11-14T13:52:20;23.77;;;19.73;;
9392;SDS011;4736;52.508;13.422;2022-11-14T13:55:44;27.23;;;20.93;;
9392;SDS011;4736;52.508;13.422;2022-11-14T14:06:09;27.33;;;21.67;;
9392;SDS011;4736;52.508;13.422;2022-11-14T14:09:23;25.43;;;21.50;;
9392;SDS011;4736;52.508;13.422;2022-11-14T14:12:44;24.90;;;19.90;;
9392;SDS011;4736;52.508;13.422;2022-11-14T14:16:02;25.17;;;19.47;;
9392;SDS011;4736;52.508;13.422;2022-11-14T14:19:11;27.83;;;21.00;;
9392;SDS011;4736;52.508;13.422;2022-11-14T14:22:28;25.77;;;20.50;;
9392;SDS011;4736;52.508;13.422;2022-11-14T14:25:43;24.17;;;20.50;;
9392;SDS011;4736;52.508;13.422;2022-11-14T14:28:53;26.20;;;20.57;;
9392;SDS011;4736;52.508;13.422;2022-11-14T14:32:09;26.23;;;20.73;;
9392;SDS011;4736;52.508;13.422;2022-11-14T14:35:21;23.43;;;20.33;;
9392;SDS011;4736;52.508;13.422;2022-11-14T14:38:26;29.63;;;21.27;;
9392;SDS011;4736;52.508;13.422;2022-11-14T14:41:32;23.13;;;19.17;;
9392;SDS011;4736;52.508;13.422;2022-11-14T14:44:36;25.17;;;20.03;;
9392;SDS011;4736;52.508;13.422;2022-11-14T14:47:41;21.27;;;19.00;;
9392;SDS011;4736;52.508;13.422;2022-11-14T14:50:47;25.03;;;20.43;;
9392;SDS011;4736;52.508;13.422;2022-11-14T14:53:53;27.90;;;20.53;;
9392;SDS011;4736;52.508;13.422;2022-11-14T14:56:58;23.60;;;20.47;;
9392;SDS011;4736;52.508;13.422;2022-11-14T15:00:03;24.90;;;20.43;;
9392;SDS011;4736;52.508;13.422;2022-11-14T15:03:08;25.93;;;20.97;;
9392;SDS011;4736;52.508;13.422;2022-11-14T15:06:18;30.23;;;22.03;;
9392;SDS011;4736;52.508;13.422;2022-11-14T15:09:31;28.80;;;20.50;;
9392;SDS011;4736;52.508;13.422;2022-11-14T15:12:37;29.57;;;22.80;;
9392;SDS011;4736;52.508;13.422;2022-11-14T15:15:42;29.70;;;24.73;;
9392;SDS011;4736;52.508;13.422;2022-11-14T15:18:45;26.37;;;21.17;;
9392;SDS011;4736;52.508;13.422;2022-11-14T15:22:01;34.17;;;23.07;;
9392;SDS011;4736;52.508;13.422;2022-11-14T15:25:14;33.17;;;24.27;;
9392;SDS011;4736;52.508;13.422;2022-11-14T15:28:21;36.17;;;25.13;;
9392;SDS011;4736;52.508;13.422;2022-11-14T15:31:24;33.50;;;25.30;;
9392;SDS011;4736;52.508;13.422;2022-11-14T15:34:28;36.03;;;26.90;;
9392;SDS011;4736;52.508;13.422;2022-11-14T15:37:32;34.37;;;26.77;;
9392;SDS011;4736;52.508;13.422;2022-11-14T15:40:35;36.73;;;26.00;;
9392;SDS011;4736;52.508;13.422;2022-11-14T15:43:46;31.50;;;24.03;;
9392;SDS011;4736;52.508;13.422;2022-11-14T15:46:51;30.37;;;24.40;;
9392;SDS011;4736;52.508;13.422;2022-11-14T15:49:58;34.77;;;26.20;;
9392;SDS011;4736;52.508;13.422;2022-11-14T15:53:03;32.27;;;24.20;;
9392;SDS011;4736;52.508;13.422;2022-11-14T15:56:08;32.37;;;24.97;;
9392;SDS011;4736;52.508;13.422;2022-11-14T15:59:14;33.40;;;25.87;;
9392;SDS011;4736;52.508;13.422;2022-11-14T16:02:18;31.43;;;25.10;;
9392;SDS011;4736;52.508;13.422;2022-11-14T16:05:23;31.23;;;25.67;;
9392;SDS011;4736;52.508;13.422;2022-11-14T16:08:28;34.73;;;26.40;;
9392;SDS011;4736;52.508;13.422;2022-11-14T16:11:38;33.73;;;24.87;;
9392;SDS011;4736;52.508;13.422;2022-11-14T16:14:43;34.37;;;26.90;;
9392;SDS011;4736;52.508;13.422;2022-11-14T16:17:49;35.70;;;27.30;;
9392;SDS011;4736;52.508;13.422;2022-11-14T16:20:52;33.30;;;25.43;;
9392;SDS011;4736;52.508;13.422;2022-11-14T16:24:00;30.93;;;25.47;;
9392;SDS011;4736;52.508;13.422;2022-11-14T16:27:03;32.53;;;24.97;;
9392;SDS011;4736;52.508;13.422;2022-11-14T16:30:09;35.73;;;26.33;;
9392;SDS011;4736;52.508;13.422;2022-11-14T16:33:13;34.83;;;24.70;;
9392;SDS011;4736;52.508;13.422;2022-11-14T16:36:16;35.53;;;25.83;;
9392;SDS011;4736;52.508;13.422;2022-11-14T16:39:23;31.77;;;25.53;;
9392;SDS011;4736;52.508;13.422;2022-11-14T16:42:26;33.43;;;25.63;;
9392;SDS011;4736;52.508;13.422;2022-11-14T16:45:30;32.00;;;25.10;;
9392;SDS011;4736;52.508;13.422;2022-11-14T16:48:36;31.27;;;24.23;;
9392;SDS011;4736;52.508;13.422;2022-11-14T16:51:39;30.97;;;24.33;;
9392;SDS011;4736;52.508;13.422;2022-11-14T16:54:52;33.63;;;26.07;;
9392;SDS011;4736;52.508;13.422;2022-11-14T16:57:55;31.67;;;25.77;;
9392;SDS011;4736;52.508;13.422;2022-11-14T17:01:02;33.03;;;24.57;;
9392;SDS011;4736;52.508;13.422;2022-11-14T17:04:13;35.40;;;26.53;;
9392;SDS011;4736;52.508;13.422;2022-11-14T17:07:17;35.47;;;26.57;;
9392;SDS011;4736;52.508;13.422;2022-11-14T17:10:23;32.47;;;26.00;;
9392;SDS011;4736;52.508;13.422;2022-11-14T17:13:27;33.30;;;26.47;;
9392;SDS011;4736;52.508;13.422;2022-11-14T17:16:34;32.13;;;26.13;;
9392;SDS011;4736;52.508;13.422;2022-11-14T17:19:37;34.13;;;26.13;;
9392;SDS011;4736;52.508;13.422;2022-11-14T17:22:45;36.60;;;27.30;;
9392;SDS011;4736;52.508;13.422;2022-11-14T17:25:48;33.00;;;26.20;;
9392;SDS011;4736;52.508;13.422;2022-11-14T17:28:51;31.10;;;25.97;;
9392;SDS011;4736;52.508;13.422;2022-11-14T17:31:56;36.90;;;28.43;;
9392;SDS011;4736;52.508;13.422;2022-11-14T17:34:59;33.93;;;27.27;;
9392;SDS011;4736;52.508;13.422;2022-11-14T17:38:02;34.70;;;26.63;;
9392;SDS011;4736;52.508;13.422;2022-11-14T17:41:05;33.10;;;26.80;;
9392;SDS011;4736;52.508;13.422;2022-11-14T17:44:08;32.57;;;26.70;;
9392;SDS011;4736;52.508;13.422;2022-11-14T17:47:13;35.60;;;28.23;;
9392;SDS011;4736;52.508;13.422;2022-11-14T17:50:16;33.23;;;25.73;;
9392;SDS011;4736;52.508;13.422;2022-11-14T17:53:19;34.10;;;27.00;;
9392;SDS011;4736;52.508;13.422;2022-11-14T17:56:23;33.77;;;25.53;;
9392;SDS011;4736;52.508;13.422;2022-11-14T17:59:27;35.80;;;27.33;;
9392;SDS011;4736;52.508;13.422;2022-11-14T18:02:31;35.47;;;26.90;;
9392;SDS011;4736;52.508;13.422;2022-11-14T18:05:34;30.77;;;25.00;;
9392;SDS011;4736;52.508;13.422;2022-11-14T18:08:39;31.10;;;25.33;;
9392;SDS011;4736;52.508;13.422;2022-11-14T18:11:42;31.73;;;25.80;;
9392;SDS011;4736;52.508;13.422;2022-11-14T18:14:45;31.53;;;25.47;;
9392;SDS011;4736;52.508;13.422;2022-11-14T18:17:49;30.17;;;24.97;;
9392;SDS011;4736;52.508;13.422;2022-11-14T18:20:53;36.70;;;26.77;;
9392;SDS011;4736;52.508;13.422;2022-11-14T18:23:58;34.20;;;26.47;;
9392;SDS011;4736;52.508;13.422;2022-11-14T18:27:01;33.20;;;26.77;;
9392;SDS011;4736;52.508;13.422;2022-11-14T18:30:04;37.57;;;27.43;;
9392;SDS011;4736;52.508;13.422;2022-11-14T18:33:29;31.57;;;25.83;;
9392;SDS011;4736;52.508;13.422;2022-11-14T18:36:32;37.30;;;28.37;;
9392;SDS011;4736;52.508;13.422;2022-11-14T18:39:35;32.47;;;25.03;;
9392;SDS011;4736;52.508;13.422;2022-11-14T18:42:38;35.00;;;26.67;;
9392;SDS011;4736;52.508;13.422;2022-11-14T18:45:41;34.97;;;26.57;;
9392;SDS011;4736;52.508;13.422;2022-11-14T18:48:46;33.23;;;27.07;;
9392;SDS011;4736;52.508;13.422;2022-11-14T18:51:54;37.00;;;27.27;;
9392;SDS011;4736;52.508;13.422;2022-11-14T18:54:57;38.10;;;28.80;;
9392;SDS011;4736;52.508;13.422;2022-11-14T18:58:00;35.53;;;27.27;;
9392;SDS011;4736;52.508;13.422;2022-11-14T19:01:10;38.50;;;27.53;;